TAF KBOS
KBOS 072321Z 0800/0906 27007KT P6SM BKN250 FM080800 30005KT P6SM OVC120 FM081400 07007KT P6SM OVC045 FM081800 07007KT P6SM OVC035 FM082000 06009KT P6SM VCSH OVC025 FM082200 05008KT 6SM -SHRASN OVC020 FM090200 34008KT 2SM -SHSN BR OVC015=
METAR KBOS
KBOS 080154Z 31006KT 10SM FEW130 SCT220 02/M07 A3019 RMK AO2 SLP222 T00221072 ?
KBOS 080054Z 30007KT 10SM FEW130 FEW220 02/M08 A3018 RMK AO2 SLP220 T00221078
KBOS 072354Z 28006KT 10SM FEW140 FEW220 03/M08 A3017 RMK AO2 SLP214 T00281078 10061 20028 50017 ?
KBOS 072254Z 29009KT 10SM FEW065 SCT150 03/M08 A3017 RMK AO2 SLP215 T00331078
KBOS 072154Z 27009KT 10SM FEW060 BKN150 BKN250 04/M08 A3015 RMK AO2 SLP210 T00391078
WC KBOS
WS KBOS
WV KBOS